sensor_id;sensor_type;location;lat;lon;timestamp;P1;durP1;ratioP1;P2;durP2;ratioP2
32333;SDS011;18810;53.040;8.850;2023-02-28T00:00:17;13.65;;;8.25;;
32333;SDS011;18810;53.040;8.850;2023-02-28T00:02:44;11.45;;;7.72;;
32333;SDS011;18810;53.040;8.850;2023-02-28T00:05:11;14.93;;;7.95;;
32333;SDS011;18810;53.040;8.850;2023-02-28T00:07:38;17.48;;;9.07;;
32333;SDS011;18810;53.040;8.850;2023-02-28T00:10:05;13.43;;;7.93;;
32333;SDS011;18810;53.040;8.850;2023-02-28T00:12:32;13.85;;;8.02;;
32333;SDS011;18810;53.040;8.850;2023-02-28T00:14:59;15.05;;;9.27;;
32333;SDS011;18810;53.040;8.850;2023-02-28T00:17:25;14.63;;;8.63;;
32333;SDS011;18810;53.040;8.850;2023-02-28T00:19:51;14.25;;;8.10;;
32333;SDS011;18810;53.040;8.850;2023-02-28T00:22:17;13.90;;;8.50;;
32333;SDS011;18810;53.040;8.850;2023-02-28T00:24:44;14.73;;;9.35;;
32333;SDS011;18810;53.040;8.850;2023-02-28T00:27:10;15.63;;;9.50;;
32333;SDS011;18810;53.040;8.850;2023-02-28T00:29:37;14.05;;;8.63;;
32333;SDS011;18810;53.040;8.850;2023-02-28T00:32:03;15.68;;;9.02;;
32333;SDS011;18810;53.040;8.850;2023-02-28T00:34:29;13.07;;;8.52;;
32333;SDS011;18810;53.040;8.850;2023-02-28T00:36:55;17.35;;;10.20;;
32333;SDS011;18810;53.040;8.850;2023-02-28T00:39:21;18.45;;;9.68;;
32333;SDS011;18810;53.040;8.850;2023-02-28T00:41:47;16.20;;;9.57;;
32333;SDS011;18810;53.040;8.850;2023-02-28T00:44:12;19.08;;;9.98;;
32333;SDS011;18810;53.040;8.850;2023-02-28T00:46:38;14.40;;;9.43;;
32333;SDS011;18810;53.040;8.850;2023-02-28T00:49:04;12.98;;;9.13;;
32333;SDS011;18810;53.040;8.850;2023-02-28T00:51:29;17.10;;;10.30;;
32333;SDS011;18810;53.040;8.850;2023-02-28T00:53:55;13.60;;;9.57;;
32333;SDS011;18810;53.040;8.850;2023-02-28T00:56:21;15.02;;;10.07;;
32333;SDS011;18810;53.040;8.850;2023-02-28T00:58:47;16.55;;;10.07;;
32333;SDS011;18810;53.040;8.850;2023-02-28T01:01:12;14.93;;;9.95;;
32333;SDS011;18810;53.040;8.850;2023-02-28T01:03:38;17.15;;;9.77;;
32333;SDS011;18810;53.040;8.850;2023-02-28T01:06:04;18.75;;;10.82;;
32333;SDS011;18810;53.040;8.850;2023-02-28T01:08:30;15.63;;;9.43;;
32333;SDS011;18810;53.040;8.850;2023-02-28T01:10:56;12.70;;;9.73;;
32333;SDS011;18810;53.040;8.850;2023-02-28T01:13:21;20.38;;;10.60;;
32333;SDS011;18810;53.040;8.850;2023-02-28T01:15:53;15.45;;;10.35;;
32333;SDS011;18810;53.040;8.850;2023-02-28T01:18:21;18.20;;;11.00;;
32333;SDS011;18810;53.040;8.850;2023-02-28T01:20:47;19.13;;;11.82;;
32333;SDS011;18810;53.040;8.850;2023-02-28T01:23:13;18.90;;;12.05;;
32333;SDS011;18810;53.040;8.850;2023-02-28T01:25:39;21.02;;;12.55;;
32333;SDS011;18810;53.040;8.850;2023-02-28T01:28:05;17.35;;;11.75;;
32333;SDS011;18810;53.040;8.850;2023-02-28T01:30:31;24.13;;;11.68;;
32333;SDS011;18810;53.040;8.850;2023-02-28T01:32:57;20.67;;;11.77;;
32333;SDS011;18810;53.040;8.850;2023-02-28T01:35:23;18.90;;;12.02;;
32333;SDS011;18810;53.040;8.850;2023-02-28T01:37:49;17.67;;;11.30;;
32333;SDS011;18810;53.040;8.850;2023-02-28T01:40:14;19.05;;;11.93;;
32333;SDS011;18810;53.040;8.850;2023-02-28T01:42:40;18.80;;;12.23;;
32333;SDS011;18810;53.040;8.850;2023-02-28T01:45:18;17.67;;;12.35;;
32333;SDS011;18810;53.040;8.850;2023-02-28T01:47:54;19.17;;;12.00;;
32333;SDS011;18810;53.040;8.850;2023-02-28T01:50:24;16.63;;;11.15;;
32333;SDS011;18810;53.040;8.850;2023-02-28T01:52:54;20.52;;;12.10;;
32333;SDS011;18810;53.040;8.850;2023-02-28T01:55:22;16.17;;;11.30;;
32333;SDS011;18810;53.040;8.850;2023-02-28T01:57:50;17.23;;;11.55;;
32333;SDS011;18810;53.040;8.850;2023-02-28T02:00:20;20.40;;;11.48;;
32333;SDS011;18810;53.040;8.850;2023-02-28T02:02:49;22.55;;;12.10;;
32333;SDS011;18810;53.040;8.850;2023-02-28T02:05:22;19.92;;;10.93;;
32333;SDS011;18810;53.040;8.850;2023-02-28T02:07:51;16.00;;;11.68;;
32333;SDS011;18810;53.040;8.850;2023-02-28T02:18:39;16.63;;;10.52;;
32333;SDS011;18810;53.040;8.850;2023-02-28T02:30:13;16.50;;;10.88;;
32333;SDS011;18810;53.040;8.850;2023-02-28T02:38:29;17.20;;;10.73;;
32333;SDS011;18810;53.040;8.850;2023-02-28T02:41:14;15.02;;;10.93;;
32333;SDS011;18810;53.040;8.850;2023-02-28T02:46:43;17.20;;;9.15;;
32333;SDS011;18810;53.040;8.850;2023-02-28T02:49:15;17.27;;;9.70;;
32333;SDS011;18810;53.040;8.850;2023-02-28T02:51:45;13.15;;;9.10;;
32333;SDS011;18810;53.040;8.850;2023-02-28T02:56:50;17.05;;;10.52;;
32333;SDS011;18810;53.040;8.850;2023-02-28T02:59:18;14.25;;;9.93;;
32333;SDS011;18810;53.040;8.850;2023-02-28T03:01:50;15.95;;;10.38;;
32333;SDS011;18810;53.040;8.850;2023-02-28T03:04:21;14.80;;;9.95;;
32333;SDS011;18810;53.040;8.850;2023-02-28T03:06:49;15.95;;;10.68;;
32333;SDS011;18810;53.040;8.850;2023-02-28T03:09:20;15.52;;;10.02;;
32333;SDS011;18810;53.040;8.850;2023-02-28T03:11:50;13.93;;;9.98;;
32333;SDS011;18810;53.040;8.850;2023-02-28T03:25:56;15.82;;;10.10;;
32333;SDS011;18810;53.040;8.850;2023-02-28T03:33:50;15.63;;;10.43;;
32333;SDS011;18810;53.040;8.850;2023-02-28T03:36:23;14.73;;;10.38;;
32333;SDS011;18810;53.040;8.850;2023-02-28T03:39:08;12.88;;;9.77;;
32333;SDS011;18810;53.040;8.850;2023-02-28T03:41:55;14.55;;;10.63;;
32333;SDS011;18810;53.040;8.850;2023-02-28T03:44:27;18.52;;;10.52;;
32333;SDS011;18810;53.040;8.850;2023-02-28T03:47:04;14.02;;;10.23;;
32333;SDS011;18810;53.040;8.850;2023-02-28T03:49:42;19.58;;;10.50;;
32333;SDS011;18810;53.040;8.850;2023-02-28T03:52:14;16.48;;;10.80;;
32333;SDS011;18810;53.040;8.850;2023-02-28T03:54:43;16.05;;;10.73;;
32333;SDS011;18810;53.040;8.850;2023-02-28T03:59:46;16.50;;;11.55;;
32333;SDS011;18810;53.040;8.850;2023-02-28T04:02:17;18.05;;;12.23;;
32333;SDS011;18810;53.040;8.850;2023-02-28T04:04:43;18.08;;;11.77;;
32333;SDS011;18810;53.040;8.850;2023-02-28T04:07:10;16.30;;;11.10;;
32333;SDS011;18810;53.040;8.850;2023-02-28T04:09:37;15.05;;;10.63;;
32333;SDS011;18810;53.040;8.850;2023-02-28T04:12:03;17.00;;;10.63;;
32333;SDS011;18810;53.040;8.850;2023-02-28T04:14:28;18.52;;;11.18;;
32333;SDS011;18810;53.040;8.850;2023-02-28T04:16:54;16.00;;;11.00;;
32333;SDS011;18810;53.040;8.850;2023-02-28T04:19:20;16.58;;;11.40;;
32333;SDS011;18810;53.040;8.850;2023-02-28T04:21:50;18.50;;;11.18;;
32333;SDS011;18810;53.040;8.850;2023-02-28T04:24:18;14.85;;;10.68;;
32333;SDS011;18810;53.040;8.850;2023-02-28T04:26:48;16.80;;;11.70;;
32333;SDS011;18810;53.040;8.850;2023-02-28T04:31:49;17.23;;;11.00;;
32333;SDS011;18810;53.040;8.850;2023-02-28T04:34:15;16.70;;;10.70;;
32333;SDS011;18810;53.040;8.850;2023-02-28T04:36:41;19.30;;;11.23;;
32333;SDS011;18810;53.040;8.850;2023-02-28T04:39:07;16.52;;;10.45;;
32333;SDS011;18810;53.040;8.850;2023-02-28T04:41:34;16.40;;;11.35;;
32333;SDS011;18810;53.040;8.850;2023-02-28T04:44:00;16.50;;;11.18;;
32333;SDS011;18810;53.040;8.850;2023-02-28T04:46:26;15.43;;;11.50;;
32333;SDS011;18810;53.040;8.850;2023-02-28T04:48:51;16.83;;;10.93;;
32333;SDS011;18810;53.040;8.850;2023-02-28T04:51:19;16.95;;;10.68;;
32333;SDS011;18810;53.040;8.850;2023-02-28T04:53:45;16.50;;;10.95;;
32333;SDS011;18810;53.040;8.850;2023-02-28T04:56:12;15.85;;;11.02;;
32333;SDS011;18810;53.040;8.850;2023-02-28T04:58:40;13.15;;;10.30;;
32333;SDS011;18810;53.040;8.850;2023-02-28T05:01:07;15.02;;;9.80;;
32333;SDS011;18810;53.040;8.850;2023-02-28T05:03:55;16.10;;;11.13;;
32333;SDS011;18810;53.040;8.850;2023-02-28T05:06:23;16.58;;;10.73;;
32333;SDS011;18810;53.040;8.850;2023-02-28T05:08:51;15.63;;;10.52;;
32333;SDS011;18810;53.040;8.850;2023-02-28T05:11:19;13.73;;;10.30;;
32333;SDS011;18810;53.040;8.850;2023-02-28T05:13:54;15.32;;;10.27;;
32333;SDS011;18810;53.040;8.850;2023-02-28T05:16:23;16.25;;;10.32;;
32333;SDS011;18810;53.040;8.850;2023-02-28T05:18:48;16.90;;;10.63;;
32333;SDS011;18810;53.040;8.850;2023-02-28T05:21:25;16.10;;;10.43;;
32333;SDS011;18810;53.040;8.850;2023-02-28T05:24:03;12.07;;;9.93;;
32333;SDS011;18810;53.040;8.850;2023-02-28T05:26:38;15.35;;;9.75;;
32333;SDS011;18810;53.040;8.850;2023-02-28T05:29:05;17.52;;;11.00;;
32333;SDS011;18810;53.040;8.850;2023-02-28T05:31:31;14.82;;;9.63;;
32333;SDS011;18810;53.040;8.850;2023-02-28T05:33:57;16.00;;;10.25;;
32333;SDS011;18810;53.040;8.850;2023-02-28T05:36:25;14.68;;;10.50;;
32333;SDS011;18810;53.040;8.850;2023-02-28T05:38:51;17.50;;;10.77;;
32333;SDS011;18810;53.040;8.850;2023-02-28T05:41:17;15.18;;;10.20;;
32333;SDS011;18810;53.040;8.850;2023-02-28T05:43:47;16.90;;;10.85;;
32333;SDS011;18810;53.040;8.850;2023-02-28T05:46:13;16.35;;;10.98;;
32333;SDS011;18810;53.040;8.850;2023-02-28T05:48:40;15.88;;;10.48;;
32333;SDS011;18810;53.040;8.850;2023-02-28T05:51:07;15.00;;;10.18;;
32333;SDS011;18810;53.040;8.850;2023-02-28T05:53:33;16.30;;;11.70;;
32333;SDS011;18810;53.040;8.850;2023-02-28T05:56:00;16.02;;;10.65;;
32333;SDS011;18810;53.040;8.850;2023-02-28T05:58:26;14.38;;;9.68;;
32333;SDS011;18810;53.040;8.850;2023-02-28T06:00:59;15.55;;;10.57;;
32333;SDS011;18810;53.040;8.850;2023-02-28T06:03:26;14.57;;;11.15;;
32333;SDS011;18810;53.040;8.850;2023-02-28T06:05:52;18.17;;;10.75;;
32333;SDS011;18810;53.040;8.850;2023-02-28T06:08:18;15.13;;;11.75;;
32333;SDS011;18810;53.040;8.850;2023-02-28T06:10:44;14.48;;;10.43;;
32333;SDS011;18810;53.040;8.850;2023-02-28T06:13:10;14.60;;;10.80;;
32333;SDS011;18810;53.040;8.850;2023-02-28T06:15:37;15.10;;;10.82;;
32333;SDS011;18810;53.040;8.850;2023-02-28T06:18:03;13.73;;;10.30;;
32333;SDS011;18810;53.040;8.850;2023-02-28T06:20:29;15.52;;;10.88;;
32333;SDS011;18810;53.040;8.850;2023-02-28T06:22:58;17.40;;;11.30;;
32333;SDS011;18810;53.040;8.850;2023-02-28T06:25:25;16.73;;;11.02;;
32333;SDS011;18810;53.040;8.850;2023-02-28T06:27:51;19.05;;;12.20;;
32333;SDS011;18810;53.040;8.850;2023-02-28T06:30:17;17.20;;;11.68;;
32333;SDS011;18810;53.040;8.850;2023-02-28T06:32:43;18.40;;;11.88;;
32333;SDS011;18810;53.040;8.850;2023-02-28T06:35:09;16.40;;;12.15;;
32333;SDS011;18810;53.040;8.850;2023-02-28T06:37:38;13.68;;;10.98;;
32333;SDS011;18810;53.040;8.850;2023-02-28T06:40:04;21.67;;;11.30;;
32333;SDS011;18810;53.040;8.850;2023-02-28T06:42:31;17.63;;;11.40;;
32333;SDS011;18810;53.040;8.850;2023-02-28T06:44:57;12.13;;;10.30;;
32333;SDS011;18810;53.040;8.850;2023-02-28T06:47:23;17.00;;;11.40;;
32333;SDS011;18810;53.040;8.850;2023-02-28T06:49:49;15.05;;;10.90;;
32333;SDS011;18810;53.040;8.850;2023-02-28T06:52:15;16.92;;;10.93;;
32333;SDS011;18810;53.040;8.850;2023-02-28T06:54:41;15.25;;;10.93;;
32333;SDS011;18810;53.040;8.850;2023-02-28T06:57:07;16.38;;;11.77;;
32333;SDS011;18810;53.040;8.850;2023-02-28T06:59:33;17.60;;;11.43;;
32333;SDS011;18810;53.040;8.850;2023-02-28T07:02:00;17.42;;;11.10;;
32333;SDS011;18810;53.040;8.850;2023-02-28T07:04:27;13.45;;;10.80;;
32333;SDS011;18810;53.040;8.850;2023-02-28T07:06:54;21.27;;;11.18;;
32333;SDS011;18810;53.040;8.850;2023-02-28T07:09:21;17.55;;;10.88;;
32333;SDS011;18810;53.040;8.850;2023-02-28T07:11:47;14.13;;;10.60;;
32333;SDS011;18810;53.040;8.850;2023-02-28T07:14:13;16.17;;;11.43;;
32333;SDS011;18810;53.040;8.850;2023-02-28T07:16:39;16.63;;;10.55;;
32333;SDS011;18810;53.040;8.850;2023-02-28T07:19:05;17.27;;;11.38;;
32333;SDS011;18810;53.040;8.850;2023-02-28T07:21:31;20.83;;;10.63;;
32333;SDS011;18810;53.040;8.850;2023-02-28T07:23:56;19.30;;;12.18;;
32333;SDS011;18810;53.040;8.850;2023-02-28T07:26:22;20.85;;;11.18;;
32333;SDS011;18810;53.040;8.850;2023-02-28T07:28:48;22.75;;;11.30;;
32333;SDS011;18810;53.040;8.850;2023-02-28T07:31:15;15.40;;;11.10;;
32333;SDS011;18810;53.040;8.850;2023-02-28T07:33:42;13.20;;;10.60;;
32333;SDS011;18810;53.040;8.850;2023-02-28T07:36:10;16.55;;;9.90;;
32333;SDS011;18810;53.040;8.850;2023-02-28T07:38:41;20.45;;;10.82;;
32333;SDS011;18810;53.040;8.850;2023-02-28T07:41:08;15.38;;;10.45;;
32333;SDS011;18810;53.040;8.850;2023-02-28T07:43:34;14.38;;;9.88;;
32333;SDS011;18810;53.040;8.850;2023-02-28T07:46:04;14.15;;;9.77;;
32333;SDS011;18810;53.040;8.850;2023-02-28T07:48:32;13.63;;;9.98;;
32333;SDS011;18810;53.040;8.850;2023-02-28T07:50:58;13.55;;;9.77;;
32333;SDS011;18810;53.040;8.850;2023-02-28T07:53:25;12.80;;;9.50;;
32333;SDS011;18810;53.040;8.850;2023-02-28T07:55:54;14.80;;;8.95;;
32333;SDS011;18810;53.040;8.850;2023-02-28T07:58:24;11.55;;;8.45;;
32333;SDS011;18810;53.040;8.850;2023-02-28T08:00:50;14.43;;;10.18;;
32333;SDS011;18810;53.040;8.850;2023-02-28T08:03:20;14.05;;;9.88;;
32333;SDS011;18810;53.040;8.850;2023-02-28T08:05:47;12.38;;;8.95;;
32333;SDS011;18810;53.040;8.850;2023-02-28T08:08:13;14.40;;;10.20;;
32333;SDS011;18810;53.040;8.850;2023-02-28T08:10:42;12.98;;;8.60;;
32333;SDS011;18810;53.040;8.850;2023-02-28T08:13:08;16.17;;;9.23;;
32333;SDS011;18810;53.040;8.850;2023-02-28T08:15:34;11.20;;;8.18;;
32333;SDS011;18810;53.040;8.850;2023-02-28T08:17:59;14.10;;;8.75;;
32333;SDS011;18810;53.040;8.850;2023-02-28T08:20:25;15.27;;;9.02;;
32333;SDS011;18810;53.040;8.850;2023-02-28T08:22:52;12.73;;;8.75;;
32333;SDS011;18810;53.040;8.850;2023-02-28T08:25:18;10.93;;;8.02;;
32333;SDS011;18810;53.040;8.850;2023-02-28T08:27:44;12.18;;;8.55;;
32333;SDS011;18810;53.040;8.850;2023-02-28T08:30:13;10.60;;;7.45;;
32333;SDS011;18810;53.040;8.850;2023-02-28T08:32:40;14.00;;;7.35;;
32333;SDS011;18810;53.040;8.850;2023-02-28T08:35:06;11.48;;;7.32;;
32333;SDS011;18810;53.040;8.850;2023-02-28T08:37:34;10.57;;;6.28;;
32333;SDS011;18810;53.040;8.850;2023-02-28T08:39:59;8.73;;;6.60;;
32333;SDS011;18810;53.040;8.850;2023-02-28T08:42:25;8.05;;;6.20;;
32333;SDS011;18810;53.040;8.850;2023-02-28T08:44:51;8.73;;;6.47;;
32333;SDS011;18810;53.040;8.850;2023-02-28T08:47:16;10.48;;;6.88;;
32333;SDS011;18810;53.040;8.850;2023-02-28T08:49:43;8.40;;;6.55;;
32333;SDS011;18810;53.040;8.850;2023-02-28T08:52:08;9.35;;;6.30;;
32333;SDS011;18810;53.040;8.850;2023-02-28T08:54:34;7.50;;;5.40;;
32333;SDS011;18810;53.040;8.850;2023-02-28T08:57:01;7.95;;;5.07;;
32333;SDS011;18810;53.040;8.850;2023-02-28T08:59:28;6.68;;;4.18;;
32333;SDS011;18810;53.040;8.850;2023-02-28T09:01:54;7.78;;;4.95;;
32333;SDS011;18810;53.040;8.850;2023-02-28T09:04:20;12.07;;;5.57;;
32333;SDS011;18810;53.040;8.850;2023-02-28T09:06:46;5.03;;;4.32;;
32333;SDS011;18810;53.040;8.850;2023-02-28T09:09:13;7.07;;;4.53;;
32333;SDS011;18810;53.040;8.850;2023-02-28T09:11:39;6.78;;;4.55;;
32333;SDS011;18810;53.040;8.850;2023-02-28T09:14:06;7.45;;;4.18;;
32333;SDS011;18810;53.040;8.850;2023-02-28T09:16:32;7.18;;;4.22;;
32333;SDS011;18810;53.040;8.850;2023-02-28T09:18:58;5.38;;;4.22;;
32333;SDS011;18810;53.040;8.850;2023-02-28T09:21:24;7.90;;;3.83;;
32333;SDS011;18810;53.040;8.850;2023-02-28T09:23:50;5.78;;;3.80;;
32333;SDS011;18810;53.040;8.850;2023-02-28T09:26:23;5.43;;;3.15;;
32333;SDS011;18810;53.040;8.850;2023-02-28T09:28:51;3.97;;;2.90;;
32333;SDS011;18810;53.040;8.850;2023-02-28T09:31:23;5.75;;;3.67;;
32333;SDS011;18810;53.040;8.850;2023-02-28T09:33:52;7.10;;;3.70;;
32333;SDS011;18810;53.040;8.850;2023-02-28T09:36:18;3.58;;;3.00;;
32333;SDS011;18810;53.040;8.850;2023-02-28T09:38:45;2.30;;;2.08;;
32333;SDS011;18810;53.040;8.850;2023-02-28T09:41:22;1.98;;;1.60;;
32333;SDS011;18810;53.040;8.850;2023-02-28T09:43:59;4.07;;;2.72;;
32333;SDS011;18810;53.040;8.850;2023-02-28T09:46:43;6.43;;;3.00;;
32333;SDS011;18810;53.040;8.850;2023-02-28T09:49:17;4.15;;;3.42;;
32333;SDS011;18810;53.040;8.850;2023-02-28T09:51:52;7.57;;;5.30;;
32333;SDS011;18810;53.040;8.850;2023-02-28T09:54:24;4.38;;;3.97;;
32333;SDS011;18810;53.040;8.850;2023-02-28T09:56:57;3.67;;;1.83;;
32333;SDS011;18810;53.040;8.850;2023-02-28T09:59:39;3.17;;;1.75;;
32333;SDS011;18810;53.040;8.850;2023-02-28T10:05:24;3.45;;;2.55;;
32333;SDS011;18810;53.040;8.850;2023-02-28T10:10:41;4.15;;;1.80;;
32333;SDS011;18810;53.040;8.850;2023-02-28T10:15:58;3.03;;;1.73;;
32333;SDS011;18810;53.040;8.850;2023-02-28T10:18:28;3.33;;;1.92;;
32333;SDS011;18810;53.040;8.850;2023-02-28T10:21:01;2.25;;;1.75;;
32333;SDS011;18810;53.040;8.850;2023-02-28T10:23:31;2.53;;;1.60;;
32333;SDS011;18810;53.040;8.850;2023-02-28T10:26:21;2.15;;;1.40;;
32333;SDS011;18810;53.040;8.850;2023-02-28T10:28:51;4.18;;;1.60;;
32333;SDS011;18810;53.040;8.850;2023-02-28T10:31:19;1.73;;;1.55;;
32333;SDS011;18810;53.040;8.850;2023-02-28T10:33:45;2.40;;;1.88;;
32333;SDS011;18810;53.040;8.850;2023-02-28T10:36:13;2.80;;;1.70;;
32333;SDS011;18810;53.040;8.850;2023-02-28T10:38:41;3.40;;;2.15;;
32333;SDS011;18810;53.040;8.850;2023-02-28T10:41:15;3.33;;;2.15;;
32333;SDS011;18810;53.040;8.850;2023-02-28T10:43:52;2.40;;;1.90;;
32333;SDS011;18810;53.040;8.850;2023-02-28T10:46:36;3.63;;;1.90;;
32333;SDS011;18810;53.040;8.850;2023-02-28T10:49:06;3.03;;;2.50;;
32333;SDS011;18810;53.040;8.850;2023-02-28T10:51:55;2.97;;;1.95;;
32333;SDS011;18810;53.040;8.850;2023-02-28T10:54:35;3.40;;;2.33;;
32333;SDS011;18810;53.040;8.850;2023-02-28T10:59:32;3.70;;;2.25;;
32333;SDS011;18810;53.040;8.850;2023-02-28T11:01:57;4.32;;;2.13;;
32333;SDS011;18810;53.040;8.850;2023-02-28T11:07:01;3.65;;;1.95;;
32333;SDS011;18810;53.040;8.850;2023-02-28T11:09:33;2.50;;;2.05;;
32333;SDS011;18810;53.040;8.850;2023-02-28T11:12:04;8.15;;;2.50;;
32333;SDS011;18810;53.040;8.850;2023-02-28T11:14:47;4.30;;;2.25;;
32333;SDS011;18810;53.040;8.850;2023-02-28T11:17:23;4.40;;;2.30;;
32333;SDS011;18810;53.040;8.850;2023-02-28T11:19:53;2.72;;;2.17;;
32333;SDS011;18810;53.040;8.850;2023-02-28T11:22:27;4.47;;;2.30;;
32333;SDS011;18810;53.040;8.850;2023-02-28T11:24:57;3.33;;;2.30;;
32333;SDS011;18810;53.040;8.850;2023-02-28T11:27:40;2.10;;;1.90;;
32333;SDS011;18810;53.040;8.850;2023-02-28T11:32:59;4.28;;;2.45;;
32333;SDS011;18810;53.040;8.850;2023-02-28T11:35:31;3.17;;;2.17;;
32333;SDS011;18810;53.040;8.850;2023-02-28T11:38:02;2.90;;;2.20;;
32333;SDS011;18810;53.040;8.850;2023-02-28T11:42:58;2.33;;;1.90;;
32333;SDS011;18810;53.040;8.850;2023-02-28T11:48:23;2.67;;;2.17;;
32333;SDS011;18810;53.040;8.850;2023-02-28T11:51:39;3.42;;;2.28;;
32333;SDS011;18810;53.040;8.850;2023-02-28T11:59:25;2.60;;;2.22;;
32333;SDS011;18810;53.040;8.850;2023-02-28T12:05:19;4.40;;;2.45;;
32333;SDS011;18810;53.040;8.850;2023-02-28T12:08:02;3.08;;;2.35;;
32333;SDS011;18810;53.040;8.850;2023-02-28T12:10:57;2.75;;;2.20;;
32333;SDS011;18810;53.040;8.850;2023-02-28T12:13:49;2.97;;;2.22;;
32333;SDS011;18810;53.040;8.850;2023-02-28T12:19:16;3.28;;;2.03;;
32333;SDS011;18810;53.040;8.850;2023-02-28T12:27:19;2.72;;;2.40;;
32333;SDS011;18810;53.040;8.850;2023-02-28T12:32:30;2.50;;;2.30;;
32333;SDS011;18810;53.040;8.850;2023-02-28T12:35:11;4.35;;;2.20;;
32333;SDS011;18810;53.040;8.850;2023-02-28T12:37:45;2.47;;;2.28;;
32333;SDS011;18810;53.040;8.850;2023-02-28T12:40:22;3.25;;;2.50;;
32333;SDS011;18810;53.040;8.850;2023-02-28T12:42:55;3.45;;;2.50;;
32333;SDS011;18810;53.040;8.850;2023-02-28T12:45:39;5.53;;;2.50;;
32333;SDS011;18810;53.040;8.850;2023-02-28T12:48:25;2.88;;;2.20;;
32333;SDS011;18810;53.040;8.850;2023-02-28T12:50:56;4.55;;;2.47;;
32333;SDS011;18810;53.040;8.850;2023-02-28T12:53:46;3.20;;;2.42;;
32333;SDS011;18810;53.040;8.850;2023-02-28T13:02:00;2.40;;;2.20;;
32333;SDS011;18810;53.040;8.850;2023-02-28T13:09:59;2.25;;;2.05;;
32333;SDS011;18810;53.040;8.850;2023-02-28T13:12:27;3.35;;;2.28;;
32333;SDS011;18810;53.040;8.850;2023-02-28T13:15:27;2.30;;;2.10;;
32333;SDS011;18810;53.040;8.850;2023-02-28T13:17:54;2.65;;;2.17;;
32333;SDS011;18810;53.040;8.850;2023-02-28T13:22:52;16.87;;;11.57;;
32333;SDS011;18810;53.040;8.850;2023-02-28T13:28:10;2.40;;;2.00;;
32333;SDS011;18810;53.040;8.850;2023-02-28T13:36:09;3.30;;;2.00;;
32333;SDS011;18810;53.040;8.850;2023-02-28T13:38:39;2.30;;;1.95;;
32333;SDS011;18810;53.040;8.850;2023-02-28T13:44:10;2.15;;;1.70;;
32333;SDS011;18810;53.040;8.850;2023-02-28T13:49:25;2.92;;;1.83;;
32333;SDS011;18810;53.040;8.850;2023-02-28T14:06:07;1.80;;;1.70;;
32333;SDS011;18810;53.040;8.850;2023-02-28T14:08:45;3.22;;;1.88;;
32333;SDS011;18810;53.040;8.850;2023-02-28T14:11:36;2.22;;;2.03;;
32333;SDS011;18810;53.040;8.850;2023-02-28T14:14:04;2.15;;;1.95;;
32333;SDS011;18810;53.040;8.850;2023-02-28T14:16:39;4.75;;;2.03;;
32333;SDS011;18810;53.040;8.850;2023-02-28T14:21:50;2.55;;;2.10;;
32333;SDS011;18810;53.040;8.850;2023-02-28T14:35:27;3.95;;;1.90;;
32333;SDS011;18810;53.040;8.850;2023-02-28T14:38:06;2.88;;;1.85;;
32333;SDS011;18810;53.040;8.850;2023-02-28T14:40:41;2.17;;;1.50;;
32333;SDS011;18810;53.040;8.850;2023-02-28T14:43:18;1.83;;;1.60;;
32333;SDS011;18810;53.040;8.850;2023-02-28T14:45:49;2.10;;;1.90;;
32333;SDS011;18810;53.040;8.850;2023-02-28T14:48:17;4.05;;;2.28;;
32333;SDS011;18810;53.040;8.850;2023-02-28T14:50:49;2.60;;;1.70;;
32333;SDS011;18810;53.040;8.850;2023-02-28T14:53:20;2.00;;;1.80;;
32333;SDS011;18810;53.040;8.850;2023-02-28T14:55:48;2.65;;;1.75;;
32333;SDS011;18810;53.040;8.850;2023-02-28T15:00:57;2.53;;;1.77;;
32333;SDS011;18810;53.040;8.850;2023-02-28T15:06:00;3.28;;;1.92;;
32333;SDS011;18810;53.040;8.850;2023-02-28T15:08:31;2.60;;;1.77;;
32333;SDS011;18810;53.040;8.850;2023-02-28T15:11:02;2.10;;;1.90;;
32333;SDS011;18810;53.040;8.850;2023-02-28T15:16:04;2.45;;;1.90;;
32333;SDS011;18810;53.040;8.850;2023-02-28T15:18:55;2.30;;;2.00;;
32333;SDS011;18810;53.040;8.850;2023-02-28T15:21:24;2.53;;;1.88;;
32333;SDS011;18810;53.040;8.850;2023-02-28T15:23:57;4.22;;;2.30;;
32333;SDS011;18810;53.040;8.850;2023-02-28T15:26:33;2.58;;;1.92;;
32333;SDS011;18810;53.040;8.850;2023-02-28T15:29:10;2.67;;;1.90;;
32333;SDS011;18810;53.040;8.850;2023-02-28T15:31:47;3.35;;;2.40;;
32333;SDS011;18810;53.040;8.850;2023-02-28T15:34:19;3.65;;;1.80;;
32333;SDS011;18810;53.040;8.850;2023-02-28T15:36:46;3.67;;;2.10;;
32333;SDS011;18810;53.040;8.850;2023-02-28T15:39:18;2.30;;;1.92;;
32333;SDS011;18810;53.040;8.850;2023-02-28T15:41:45;2.67;;;1.80;;
32333;SDS011;18810;53.040;8.850;2023-02-28T15:46:43;2.38;;;2.00;;
32333;SDS011;18810;53.040;8.850;2023-02-28T15:49:40;2.25;;;2.05;;
32333;SDS011;18810;53.040;8.850;2023-02-28T15:52:22;3.42;;;2.20;;
32333;SDS011;18810;53.040;8.850;2023-02-28T15:54:52;4.30;;;2.22;;
32333;SDS011;18810;53.040;8.850;2023-02-28T15:57:22;4.35;;;2.40;;
32333;SDS011;18810;53.040;8.850;2023-02-28T15:59:57;2.53;;;2.03;;
32333;SDS011;18810;53.040;8.850;2023-02-28T16:02:30;2.88;;;2.17;;
32333;SDS011;18810;53.040;8.850;2023-02-28T16:05:01;3.33;;;2.45;;
32333;SDS011;18810;53.040;8.850;2023-02-28T16:07:34;2.72;;;2.50;;
32333;SDS011;18810;53.040;8.850;2023-02-28T16:10:01;5.13;;;2.72;;
32333;SDS011;18810;53.040;8.850;2023-02-28T16:12:28;4.13;;;3.05;;
32333;SDS011;18810;53.040;8.850;2023-02-28T16:14:56;4.40;;;2.45;;
32333;SDS011;18810;53.040;8.850;2023-02-28T16:17:25;3.85;;;2.05;;
32333;SDS011;18810;53.040;8.850;2023-02-28T16:19:53;3.15;;;2.17;;
32333;SDS011;18810;53.040;8.850;2023-02-28T16:22:19;3.00;;;2.70;;
32333;SDS011;18810;53.040;8.850;2023-02-28T16:24:45;3.03;;;2.65;;
32333;SDS011;18810;53.040;8.850;2023-02-28T16:27:21;4.90;;;2.22;;
32333;SDS011;18810;53.040;8.850;2023-02-28T16:29:55;4.07;;;2.22;;
32333;SDS011;18810;53.040;8.850;2023-02-28T16:32:21;4.57;;;3.05;;
32333;SDS011;18810;53.040;8.850;2023-02-28T16:34:46;6.70;;;4.00;;
32333;SDS011;18810;53.040;8.850;2023-02-28T16:37:13;6.20;;;4.07;;
32333;SDS011;18810;53.040;8.850;2023-02-28T16:39:40;4.63;;;2.83;;
32333;SDS011;18810;53.040;8.850;2023-02-28T16:42:10;6.10;;;3.03;;
32333;SDS011;18810;53.040;8.850;2023-02-28T16:44:56;8.25;;;5.22;;
32333;SDS011;18810;53.040;8.850;2023-02-28T16:47:22;11.65;;;6.57;;
32333;SDS011;18810;53.040;8.850;2023-02-28T16:49:49;9.30;;;5.65;;
32333;SDS011;18810;53.040;8.850;2023-02-28T16:52:15;6.65;;;4.40;;
32333;SDS011;18810;53.040;8.850;2023-02-28T16:54:40;5.60;;;4.22;;
32333;SDS011;18810;53.040;8.850;2023-02-28T16:57:15;5.97;;;4.47;;
32333;SDS011;18810;53.040;8.850;2023-02-28T16:59:45;5.72;;;4.65;;
32333;SDS011;18810;53.040;8.850;2023-02-28T17:02:12;7.57;;;4.60;;
32333;SDS011;18810;53.040;8.850;2023-02-28T17:04:39;7.57;;;4.97;;
32333;SDS011;18810;53.040;8.850;2023-02-28T17:07:08;6.70;;;4.80;;
32333;SDS011;18810;53.040;8.850;2023-02-28T17:09:37;8.07;;;5.15;;
32333;SDS011;18810;53.040;8.850;2023-02-28T17:12:03;6.70;;;4.60;;
32333;SDS011;18810;53.040;8.850;2023-02-28T17:14:29;6.75;;;4.28;;
32333;SDS011;18810;53.040;8.850;2023-02-28T17:16:55;7.20;;;4.40;;
32333;SDS011;18810;53.040;8.850;2023-02-28T17:19:20;6.72;;;5.32;;
32333;SDS011;18810;53.040;8.850;2023-02-28T17:21:46;7.30;;;5.22;;
32333;SDS011;18810;53.040;8.850;2023-02-28T17:24:12;9.73;;;6.38;;
32333;SDS011;18810;53.040;8.850;2023-02-28T17:26:41;17.45;;;10.07;;
32333;SDS011;18810;53.040;8.850;2023-02-28T17:29:25;16.35;;;9.88;;